Time;durP1;ratioP1;P1;durP2;ratioP2;P2;SDS_P1;SDS_P2;PMS_P1;PMS_P2;Temp;Humidity;BMP_temperature;BMP_pressure;BME280_temperature;BME280_humidity;BME280_pressure;Samples;Min_cycle;Max_cycle;Signal;HPM_P1;HPM_P2
2022/11/15 00:00:50;;;;;;;;;6.33;5.00;;;;;13.17;72.71;100563.78;5059042;28;45215;-71
2022/11/15 00:03:23;;;;;;;;;6.00;6.00;;;;;13.16;72.95;100559.28;5077195;28;48809;-72
2022/11/15 00:05:49;;;;;;;;;8.00;4.67;;;;;13.09;72.69;100550.25;5057506;28;45124;-71
2022/11/15 00:08:14;;;;;;;;;7.33;7.00;;;;;12.90;72.40;100523.19;5060657;28;44873;-71
2022/11/15 00:10:40;;;;;;;;;7.33;6.33;;;;;12.99;72.21;100540.28;5063280;28;45019;-70
2022/11/15 00:13:10;;;;;;;;;5.00;5.00;;;;;12.97;72.41;100525.94;5053270;28;45052;-72
2022/11/15 00:15:37;;;;;;;;;5.00;3.00;;;;;13.13;72.62;100561.91;5063637;28;45058;-72
2022/11/15 00:18:04;;;;;;;;;5.00;3.67;;;;;13.03;71.95;100536.75;5038200;28;45480;-71
2022/11/15 00:20:29;;;;;;;;;4.00;4.00;;;;;12.97;71.83;100523.25;5037209;28;45079;-71
2022/11/15 00:22:55;;;;;;;;;3.33;1.67;;;;;12.97;72.13;100528.63;5055182;28;46094;-71
2022/11/15 00:25:20;;;;;;;;;4.67;4.67;;;;;12.94;72.57;100532.19;5061758;28;45148;-72
2022/11/15 00:27:45;;;;;;;;;5.00;5.00;;;;;12.96;72.23;100535.78;5066999;28;44988;-72
2022/11/15 00:30:12;;;;;;;;;4.67;4.67;;;;;12.96;72.41;100535.78;5059811;28;45346;-72
2022/11/15 00:32:37;;;;;;;;;6.33;4.00;;;;;12.82;71.77;100526.63;5063223;28;45762;-70
2022/11/15 00:35:03;;;;;;;;;6.67;4.67;;;;;12.78;72.31;100527.50;5045702;28;45214;-71
2022/11/15 00:37:28;;;;;;;;;4.33;3.00;;;;;12.83;72.41;100534.69;5061892;28;44886;-70
2022/11/15 00:39:54;;;;;;;;;5.67;4.00;;;;;12.72;72.02;100518.50;5058795;28;45736;-71
2022/11/15 00:42:19;;;;;;;;;5.00;5.00;;;;;12.81;72.34;100530.22;5037337;28;47030;-72
2022/11/15 00:44:44;;;;;;;;;5.33;4.33;;;;;12.80;71.13;100528.41;5052808;28;45442;-71
2022/11/15 00:47:10;;;;;;;;;3.67;3.67;;;;;12.79;71.43;100527.50;5058089;28;45012;-71
2022/11/15 00:49:35;;;;;;;;;3.00;2.00;;;;;12.77;70.92;100520.31;5045014;28;45125;-71
2022/11/15 00:52:00;;;;;;;;;2.00;1.00;;;;;12.69;70.60;100526.47;5059208;28;52779;-70
2022/11/15 00:54:26;;;;;;;;;1.33;1.33;;;;;12.61;70.98;100509.41;5062943;28;45136;-71
2022/11/15 00:56:51;;;;;;;;;3.33;2.00;;;;;12.59;71.46;100513.84;5069220;28;46814;-72
2022/11/15 00:59:16;;;;;;;;;3.00;3.00;;;;;12.50;70.30;100500.28;5060657;28;45275;-71
2022/11/15 01:01:42;;;;;;;;;3.33;3.33;;;;;12.53;70.84;100506.59;5062753;28;45861;-69
2022/11/15 01:04:07;;;;;;;;;5.00;2.33;;;;;12.56;70.98;100507.53;5046355;28;45692;-71
2022/11/15 01:06:32;;;;;;;;;5.00;3.67;;;;;12.61;71.64;100505.81;5069426;28;45367;-72
2022/11/15 01:08:58;;;;;;;;;5.67;3.67;;;;;12.57;70.36;100502.16;5060323;28;44994;-70
2022/11/15 01:11:23;;;;;;;;;4.67;3.00;;;;;12.65;70.87;100508.53;5051123;28;45253;-71
2022/11/15 01:13:48;;;;;;;;;3.00;2.00;;;;;12.56;70.18;100487.00;5040973;28;45254;-71
2022/11/15 01:16:18;;;;;;;;;2.00;2.00;;;;;12.70;70.73;100506.84;5055188;28;45065;-72
2022/11/15 01:18:44;;;;;;;;;6.00;3.00;;;;;12.73;70.49;100505.97;5044068;28;45235;-71
2022/11/15 01:21:12;;;;;;;;;5.33;4.00;;;;;12.68;69.81;100499.66;5079713;27;47596;-72
2022/11/15 01:23:38;;;;;;;;;3.00;3.00;;;;;12.72;70.45;100496.16;5056611;28;45054;-71
2022/11/15 01:26:06;;;;;;;;;2.00;2.00;;;;;12.69;69.77;100488.97;5062088;28;44978;-71
2022/11/15 01:28:33;;;;;;;;;4.67;3.33;;;;;12.69;69.68;100474.66;5058965;28;44974;-71
2022/11/15 01:31:03;;;;;;;;;5.67;2.00;;;;;12.73;69.26;100484.53;5060047;28;45680;-71
2022/11/15 01:33:29;;;;;;;;;7.67;3.67;;;;;12.66;69.43;100475.50;5053565;28;45164;-71
2022/11/15 01:35:55;;;;;;;;;8.00;4.00;;;;;12.68;70.22;100473.75;5064147;28;45091;-71
2022/11/15 01:38:20;;;;;;;;;6.67;3.33;;;;;12.61;69.88;100457.56;5058704;28;44889;-70
2022/11/15 01:40:46;;;;;;;;;3.33;3.33;;;;;12.66;69.85;100475.50;5036147;28;46668;-71
2022/11/15 01:43:39;;;;;;;;;5.00;3.00;;;;;12.60;69.84;100478.09;5056372;28;44948;-70
2022/11/15 01:46:32;;;;;;;;;3.67;3.67;;;;;12.61;70.53;100471.88;5032347;28;45262;-71
2022/11/15 01:49:02;;;;;;;;;5.00;4.00;;;;;12.46;70.00;100448.44;5049282;28;45004;-71
2022/11/15 01:51:31;;;;;;;;;2.00;2.00;;;;;12.54;69.93;100470.00;5059341;28;45286;-71
2022/11/15 01:54:03;;;;;;;;;3.33;3.00;;;;;12.47;69.75;100452.00;5039942;28;45191;-71
2022/11/15 01:56:32;;;;;;;;;3.00;3.00;;;;;12.38;69.90;100433.16;5056923;28;45371;-71
2022/11/15 01:59:02;;;;;;;;;7.00;4.00;;;;;12.46;69.49;100453.81;5065724;28;45107;-71
2022/11/15 02:01:30;;;;;;;;;4.67;3.67;;;;;12.40;69.39;100443.00;5045203;28;47342;-71
2022/11/15 02:04:00;;;;;;;;;7.00;4.67;;;;;12.37;68.52;100431.34;5059731;28;45192;-71
2022/11/15 02:06:25;;;;;;;;;4.33;3.00;;;;;11.79;68.69;100335.88;5058799;28;45132;-70
2022/11/15 02:08:52;;;;;;;;;7.00;4.00;;;;;12.29;69.18;100425.88;5044107;28;44947;-71
2022/11/15 02:11:17;;;;;;;;;4.67;4.00;;;;;12.19;68.71;100405.19;5058926;28;45929;-70
2022/11/15 02:13:44;;;;;;;;;6.00;3.00;;;;;12.17;69.03;100400.69;5067141;28;45247;-70
2022/11/15 02:16:46;;;;;;;;;2.00;2.00;;;;;12.32;68.22;100425.91;5062193;28;45135;-71
2022/11/15 02:19:23;;;;;;;;;5.00;3.00;;;;;12.25;68.05;100421.34;5066190;28;45176;-72
2022/11/15 02:22:22;;;;;;;;;2.33;2.00;;;;;12.19;68.75;100399.84;5063042;28;45802;-71
2022/11/15 02:25:18;;;;;;;;;3.00;3.00;;;;;12.21;68.32;100411.47;5044201;28;45010;-71
2022/11/15 02:28:11;;;;;;;;;5.00;2.00;;;;;12.22;68.24;100410.59;5041911;28;45174;-71
2022/11/15 02:30:53;;;;;;;;;4.00;3.00;;;;;12.19;68.77;100406.09;5060699;28;45321;-71
2022/11/15 02:33:48;;;;;;;;;5.00;3.33;;;;;12.13;67.78;100401.56;5055800;28;45845;-70
2022/11/15 02:36:27;;;;;;;;;3.00;2.00;;;;;11.96;67.91;100382.56;5057958;28;45161;-70
2022/11/15 02:39:23;;;;;;;;;2.67;1.00;;;;;11.87;67.31;100376.16;5062136;28;45132;-71
2022/11/15 02:41:57;;;;;;;;;6.67;4.67;;;;;11.93;68.22;100385.19;5038649;28;46268;-70
2022/11/15 02:44:45;;;;;;;;;3.00;3.00;;;;;12.03;68.45;100393.34;5057010;28;45559;-71
2022/11/15 02:47:16;;;;;;;;;4.33;3.33;;;;;11.98;67.47;100362.06;5061486;28;45510;-72
2022/11/15 02:50:09;;;;;;;;;3.00;1.67;;;;;12.04;66.86;100381.78;5040003;28;45196;-70
2022/11/15 02:52:35;;;;;;;;;2.00;2.00;;;;;12.06;67.71;100372.91;5055971;28;45198;-74
2022/11/15 02:55:02;;;;;;;;;6.00;3.00;;;;;12.08;67.77;100375.59;5068314;28;45538;-73
2022/11/15 02:57:45;;;;;;;;;2.00;2.00;;;;;12.02;67.65;100364.78;5035773;28;45137;-71
2022/11/15 03:00:17;;;;;;;;;3.00;2.00;;;;;11.89;67.90;100340.47;5057495;28;45261;-72
2022/11/15 03:02:52;;;;;;;;;10.00;5.33;;;;;11.98;67.49;100358.50;5067067;28;44979;-70
2022/11/15 03:05:36;;;;;;;;;3.33;2.00;;;;;11.96;67.45;100344.16;5065552;28;47517;-71
2022/11/15 03:08:09;;;;;;;;;7.67;4.67;;;;;11.87;67.08;100342.22;5040662;28;45085;-70
2022/11/15 03:10:57;;;;;;;;;3.67;2.00;;;;;11.84;68.21;100323.44;5041132;28;45301;-71
2022/11/15 03:13:32;;;;;;;;;5.67;4.00;;;;;11.84;67.90;100339.50;5055875;28;45261;-71
2022/11/15 03:16:23;;;;;;;;;4.00;4.00;;;;;11.68;67.55;100321.44;5059337;28;46960;-70
2022/11/15 03:19:13;;;;;;;;;2.00;2.00;;;;;11.74;68.80;100330.44;5057326;28;45029;-71
2022/11/15 03:21:41;;;;;;;;;4.33;2.33;;;;;11.77;68.32;100330.50;5043773;28;45180;-71
2022/11/15 03:24:08;;;;;;;;;6.33;3.00;;;;;11.72;68.53;100318.81;5056418;28;45048;-70
2022/11/15 03:26:38;;;;;;;;;3.00;3.00;;;;;11.70;67.94;100317.03;5058795;28;46619;-69
2022/11/15 03:29:10;;;;;;;;;6.33;5.33;;;;;11.72;68.46;100312.59;5068642;28;45097;-71
2022/11/15 03:31:47;;;;;;;;;6.00;3.00;;;;;11.69;69.02;100302.72;5035842;28;45396;-71
2022/11/15 03:34:24;;;;;;;;;5.33;3.00;;;;;11.73;68.53;100309.94;5061704;28;45143;-72
2022/11/15 03:36:51;;;;;;;;;8.33;5.00;;;;;11.76;68.13;100311.72;5062540;28;45263;-71
2022/11/15 03:39:17;;;;;;;;;5.00;3.00;;;;;11.83;67.74;100318.06;5064914;28;45100;-69
2022/11/15 03:42:05;;;;;;;;;5.00;5.00;;;;;11.76;67.84;100303.69;5056386;28;45278;-70
2022/11/15 03:44:54;;;;;;;;;5.33;3.00;;;;;11.78;67.79;100315.34;5054528;28;44903;-71
2022/11/15 03:47:41;;;;;;;;;3.00;3.00;;;;;11.65;68.44;100289.25;5054173;28;45495;-71
2022/11/15 03:50:17;;;;;;;;;3.00;3.00;;;;;11.67;68.63;100303.59;5058060;28;45277;-70
2022/11/15 03:52:45;;;;;;;;;5.00;3.00;;;;;11.61;68.14;100294.59;5058190;28;45108;-71
2022/11/15 03:55:14;;;;;;;;;4.00;4.00;;;;;11.71;68.15;100303.63;5061123;28;44934;-71
2022/11/15 03:57:40;;;;;;;;;3.67;3.67;;;;;11.65;68.66;100299.97;5058913;28;45233;-70
2022/11/15 04:00:06;;;;;;;;;5.00;5.00;;;;;11.24;68.08;100221.81;5036925;28;45223;-71
2022/11/15 04:02:31;;;;;;;;;5.75;3.50;;;;;11.69;68.09;100302.72;5056451;28;45156;-70
2022/11/15 04:04:56;;;;;;;;;5.33;3.00;;;;;11.54;68.88;100281.09;5048782;28;46044;-71
2022/11/15 04:07:22;;;;;;;;;4.00;2.33;;;;;11.60;67.96;100295.47;5061673;28;45611;-70
2022/11/15 04:10:02;;;;;;;;;3.00;3.00;;;;;11.61;68.47;100296.34;5068503;28;45087;-71
2022/11/15 04:12:35;;;;;;;;;3.00;3.00;;;;;11.62;68.33;100290.13;5064270;28;45268;-69
2022/11/15 04:15:07;;;;;;;;;3.67;2.33;;;;;11.58;68.50;100294.56;5059141;28;45164;-71
2022/11/15 04:17:36;;;;;;;;;4.00;3.00;;;;;11.53;68.18;100285.56;5058897;28;46073;-71
2022/11/15 04:25:37;;;;;;;;;4.00;2.33;;;;;11.54;68.81;100291.81;5060164;28;45131;-71
2022/11/15 04:28:02;;;;;;;;;4.00;4.00;;;;;11.54;68.91;100289.13;5064358;28;45896;-70
2022/11/15 04:30:28;;;;;;;;;4.33;1.00;;;;;11.39;68.25;100260.38;5060655;28;45465;-70
2022/11/15 04:32:53;;;;;;;;;3.67;1.00;;;;;11.38;69.65;100263.91;5060820;28;45326;-71
2022/11/15 04:35:18;;;;;;;;;5.67;3.67;;;;;11.43;68.96;100276.50;5059054;28;45214;-69
2022/11/15 04:37:44;;;;;;;;;5.00;2.33;;;;;11.06;69.05;100203.72;5038862;28;47015;-70
2022/11/15 04:40:10;;;;;;;;;4.00;2.33;;;;;11.50;68.94;100277.47;5039413;28;45192;-71
2022/11/15 04:42:35;;;;;;;;;2.67;2.00;;;;;11.50;69.27;100279.25;5065114;28;45057;-70
2022/11/15 04:45:01;;;;;;;;;7.67;4.67;;;;;11.39;69.22;100261.25;5040723;28;46004;-71
2022/11/15 04:47:27;;;;;;;;;3.33;3.00;;;;;11.39;70.00;100263.03;5049119;28;47048;-71
2022/11/15 04:49:53;;;;;;;;;4.00;3.00;;;;;11.35;69.71;100242.47;5061710;28;45239;-71
2022/11/15 04:52:18;;;;;;;;;3.33;3.00;;;;;11.43;68.94;100257.78;5038988;28;45244;-70
2022/11/15 04:54:44;;;;;;;;;8.75;7.00;;;;;11.41;69.19;100250.59;5044869;28;45335;-71
2022/11/15 04:57:09;;;;;;;;;2.00;2.00;;;;;11.40;69.50;100238.06;5042585;28;46254;-71
2022/11/15 04:59:35;;;;;;;;;3.67;2.00;;;;;11.41;69.87;100230.06;5065234;28;45936;-71
2022/11/15 05:02:00;;;;;;;;;2.67;2.67;;;;;11.33;70.19;100217.47;5059599;28;49996;-72
2022/11/15 05:04:26;;;;;;;;;4.75;4.00;;;;;11.29;70.29;100207.63;5059294;28;45516;-72
2022/11/15 05:06:51;;;;;;;;;3.67;2.00;;;;;11.33;69.83;100217.47;5067032;28;45401;-70
2022/11/15 05:09:20;;;;;;;;;3.00;2.00;;;;;11.30;70.40;100229.03;5058042;28;45025;-70
2022/11/15 05:11:46;;;;;;;;;2.00;2.00;;;;;11.32;70.41;100231.72;5083217;27;45292;-71
2022/11/15 05:14:12;;;;;;;;;4.67;1.33;;;;;11.22;70.57;100220.00;5044511;28;45058;-70
2022/11/15 05:16:37;;;;;;;;;3.00;2.00;;;;;11.34;69.61;100235.34;5060767;28;45851;-70
2022/11/15 05:19:03;;;;;;;;;7.00;3.67;;;;;11.36;70.19;100231.78;5052687;28;45857;-72
2022/11/15 05:21:29;;;;;;;;;2.00;2.00;;;;;11.34;70.61;100213.94;5054417;28;44981;-71
2022/11/15 05:23:54;;;;;;;;;6.00;2.67;;;;;11.29;70.65;100210.31;5059358;28;45204;-70
2022/11/15 05:26:20;;;;;;;;;16.25;13.50;;;;;11.15;71.29;100200.31;5036058;28;46693;-69
2022/11/15 05:28:45;;;;;;;;;6.00;3.00;;;;;11.29;71.05;100226.34;5060129;28;45006;-70
2022/11/15 05:31:14;;;;;;;;;3.00;2.00;;;;;11.30;70.84;100226.38;5046766;28;45193;-70
2022/11/15 05:33:40;;;;;;;;;2.50;2.50;;;;;11.30;70.72;100215.69;5041573;28;45175;-71
2022/11/15 05:36:39;;;;;;;;;3.00;3.00;;;;;11.41;71.05;100223.84;5064074;28;45293;-72
2022/11/15 05:39:06;;;;;;;;;7.75;3.50;;;;;11.40;71.44;100235.41;5034850;28;45304;-71
2022/11/15 05:41:46;;;;;;;;;3.00;3.00;;;;;11.39;71.45;100228.28;5060209;28;45179;-71
2022/11/15 05:44:14;;;;;;;;;6.00;4.00;;;;;11.35;70.96;100230.00;5056141;28;45281;-70
2022/11/15 05:46:41;;;;;;;;;5.00;4.00;;;;;11.41;70.92;100229.19;5033217;28;46986;-70
2022/11/15 05:49:09;;;;;;;;;4.33;3.33;;;;;11.27;71.29;100215.63;5075590;28;45067;-71
2022/11/15 05:51:35;;;;;;;;;5.00;3.00;;;;;11.45;71.22;100228.38;5057479;28;45424;-71
2022/11/15 05:54:01;;;;;;;;;4.00;4.00;;;;;11.46;71.83;100219.44;5054119;28;45147;-72
2022/11/15 05:56:26;;;;;;;;;5.00;4.33;;;;;11.53;71.77;100213.31;5039464;28;47120;-72
2022/11/15 05:58:56;;;;;;;;;13.00;12.75;;;;;11.55;71.85;100213.31;5038579;28;45054;-71
2022/11/15 06:01:22;;;;;;;;;5.67;4.67;;;;;11.53;71.45;100197.28;5052761;28;45404;-71
2022/11/15 06:03:48;;;;;;;;;4.00;4.00;;;;;11.48;71.78;100180.22;5065311;28;45151;-71
2022/11/15 06:06:13;;;;;;;;;4.67;3.00;;;;;11.54;72.19;100191.03;5059774;28;45832;-72
2022/11/15 06:08:39;;;;;;;;;3.00;3.00;;;;;11.60;71.25;100195.59;5040136;28;45119;-72
2022/11/15 06:11:05;;;;;;;;;4.33;4.33;;;;;11.58;72.23;100187.53;5062233;28;44854;-70
2022/11/15 06:13:32;;;;;;;;;7.33;5.33;;;;;11.54;71.77;100182.13;5060610;28;45155;-73
2022/11/15 06:15:57;;;;;;;;;3.67;3.33;;;;;11.56;71.56;100191.94;5056185;28;45310;-72
2022/11/15 06:18:23;;;;;;;;;6.33;2.67;;;;;11.44;71.99;100168.59;5053897;28;45279;-71
2022/11/15 06:20:48;;;;;;;;;7.75;6.25;;;;;11.53;72.59;100164.25;5055660;28;45113;-70
2022/11/15 06:23:14;;;;;;;;;4.33;4.33;;;;;11.63;72.02;100179.53;5034530;28;45096;-70
2022/11/15 06:25:39;;;;;;;;;5.00;4.00;;;;;11.65;72.10;100177.81;5050194;28;45068;-70
2022/11/15 06:28:04;;;;;;;;;6.67;4.00;;;;;11.58;71.50;100167.88;5054845;28;45244;-72
2022/11/15 06:30:30;;;;;;;;;6.00;4.33;;;;;11.59;72.33;100141.16;5054564;28;45207;-71
2022/11/15 06:33:03;;;;;;;;;7.00;5.00;;;;;11.56;71.95;100135.75;5056788;28;44923;-71
2022/11/15 06:35:29;;;;;;;;;5.00;3.00;;;;;11.64;72.03;100154.59;5060255;28;46184;-71
2022/11/15 06:37:55;;;;;;;;;6.00;4.00;;;;;11.59;71.88;100140.25;5054838;28;45457;-72
2022/11/15 06:40:20;;;;;;;;;3.00;3.00;;;;;11.51;72.04;100131.25;5052846;28;45361;-71
2022/11/15 06:42:45;;;;;;;;;3.33;1.00;;;;;11.57;71.65;100128.66;5053554;28;45225;-72
2022/11/15 06:45:11;;;;;;;;;6.50;5.00;;;;;11.47;71.76;100102.66;5036292;28;46902;-72
2022/11/15 06:47:44;;;;;;;;;9.67;5.00;;;;;11.64;71.82;100124.28;5037560;28;45267;-71
2022/11/15 06:50:10;;;;;;;;;6.67;5.00;;;;;11.57;72.08;100118.84;5055013;28;45375;-72
2022/11/15 06:52:35;;;;;;;;;4.33;4.33;;;;;11.65;72.26;100132.31;5044660;28;45348;-70
2022/11/15 06:55:00;;;;;;;;;51.75;41.50;;;;;11.13;72.12;100036.28;5039971;28;47254;-70
2022/11/15 06:57:27;;;;;;;;;8.00;6.00;;;;;11.66;72.24;100122.50;5057371;28;50924;-71
2022/11/15 06:59:52;;;;;;;;;7.00;6.67;;;;;11.53;72.46;100095.63;5039016;28;45062;-72
2022/11/15 07:02:18;;;;;;;;;8.50;7.50;;;;;11.58;72.45;100099.25;5060596;28;45097;-71
2022/11/15 07:04:43;;;;;;;;;6.33;4.00;;;;;11.03;72.78;100024.56;5072685;28;45227;-71
2022/11/15 07:07:09;;;;;;;;;9.00;7.75;;;;;11.37;73.37;100056.19;5067662;28;45233;-69
2022/11/15 07:09:34;;;;;;;;;4.00;4.00;;;;;11.53;73.05;100076.88;5054106;28;45370;-70
2022/11/15 07:12:00;;;;;;;;;3.33;3.33;;;;;11.51;73.10;100069.72;5061252;28;45127;-72
2022/11/15 07:14:25;;;;;;;;;7.33;5.00;;;;;11.38;72.22;100039.25;5061646;28;45995;-70
2022/11/15 07:16:50;;;;;;;;;4.67;4.00;;;;;11.64;73.00;100078.78;5062821;28;51581;-71
2022/11/15 07:19:16;;;;;;;;;6.75;6.75;;;;;11.58;72.32;100077.84;5062801;28;45179;-71
2022/11/15 07:21:41;;;;;;;;;10.25;9.75;;;;;11.62;72.63;100095.69;5056202;28;45289;-70
2022/11/15 07:24:07;;;;;;;;;8.00;4.50;;;;;11.73;72.87;100109.22;5055447;28;47207;-71
2022/11/15 07:26:32;;;;;;;;;6.00;4.75;;;;;11.78;73.26;100110.16;5058210;28;45562;-71
2022/11/15 07:28:57;;;;;;;;;7.33;6.00;;;;;11.70;72.63;100086.88;5054768;28;45304;-70
2022/11/15 07:31:25;;;;;;;;;7.33;6.67;;;;;11.76;72.10;100100.31;5044714;28;45375;-72
2022/11/15 07:33:50;;;;;;;;;8.33;5.33;;;;;11.83;72.35;100095.91;5041172;28;46167;-73
2022/11/15 07:36:16;;;;;;;;;6.67;4.00;;;;;11.84;72.42;100105.75;5043190;28;45288;-71
2022/11/15 07:38:42;;;;;;;;;8.00;4.50;;;;;11.83;72.33;100107.56;5044150;28;45408;-73
2022/11/15 07:41:08;;;;;;;;;5.00;4.50;;;;;11.84;72.44;100093.25;5056812;28;45172;-70
2022/11/15 07:43:34;;;;;;;;;10.33;5.67;;;;;11.88;72.04;100102.22;5061189;28;45840;-71
2022/11/15 07:46:04;;;;;;;;;7.50;6.00;;;;;11.84;72.78;100082.56;5052584;28;45480;-71
2022/11/15 07:48:30;;;;;;;;;7.75;6.25;;;;;11.92;72.92;100071.97;5052018;28;45374;-73
2022/11/15 07:50:56;;;;;;;;;6.50;5.00;;;;;11.94;71.84;100086.25;5044318;28;45217;-73
2022/11/15 07:53:21;;;;;;;;;19.75;16.75;;;;;11.47;72.24;99982.31;5061571;28;45465;-73
2022/11/15 07:55:46;;;;;;;;;6.00;4.00;;;;;11.67;72.95;100009.25;5055278;28;45112;-72
2022/11/15 07:58:12;;;;;;;;;6.00;6.00;;;;;11.96;72.72;100045.25;5059240;28;44962;-71
2022/11/15 08:00:38;;;;;;;;;7.00;6.25;;;;;11.94;72.50;100036.28;5057964;28;45391;-74
2022/11/15 08:03:06;;;;;;;;;6.00;6.00;;;;;12.04;72.54;100039.94;5053410;28;45211;-73
2022/11/15 08:05:35;;;;;;;;;9.75;5.75;;;;;11.98;72.44;100026.53;5055385;28;45383;-73
2022/11/15 08:08:00;;;;;;;;;8.00;5.75;;;;;12.13;71.60;100041.84;5058909;28;44978;-73
2022/11/15 08:10:27;;;;;;;;;12.50;9.50;;;;;12.03;72.35;100015.84;5056354;28;45258;-73
2022/11/15 08:13:00;;;;;;;;;7.33;5.67;;;;;12.05;71.75;100016.78;5038141;28;46481;-72
2022/11/15 08:15:26;;;;;;;;;6.00;4.00;;;;;12.15;71.52;100019.53;5054979;28;45245;-72
2022/11/15 08:18:00;;;;;;;;;6.00;5.67;;;;;11.73;70.88;99939.72;5036418;28;45275;-73
2022/11/15 08:20:31;;;;;;;;;7.67;5.00;;;;;12.24;71.57;100016.03;5056733;28;45030;-73
2022/11/15 08:22:57;;;;;;;;;6.00;4.67;;;;;12.31;70.61;100031.25;5052438;28;45890;-72
2022/11/15 08:25:26;;;;;;;;;12.33;7.33;;;;;12.40;71.57;100040.25;5062235;28;45148;-72
2022/11/15 08:28:00;;;;;;;;;8.00;5.67;;;;;12.45;70.37;100039.38;5038985;28;45259;-72
2022/11/15 08:30:25;;;;;;;;;8.67;5.67;;;;;12.50;70.89;100029.59;5064771;28;45292;-72
2022/11/15 08:32:52;;;;;;;;;7.00;3.00;;;;;12.53;70.68;100034.97;5058403;28;45941;-70
2022/11/15 08:35:19;;;;;;;;;4.67;4.67;;;;;12.58;69.67;100028.78;5060315;28;45234;-72
2022/11/15 08:37:44;;;;;;;;;5.00;5.00;;;;;12.43;70.18;100002.78;5057331;28;45463;-72
2022/11/15 08:40:10;;;;;;;;;7.00;4.00;;;;;12.51;69.74;100018.00;5036641;28;45308;-71
2022/11/15 08:42:36;;;;;;;;;6.00;4.67;;;;;12.48;70.80;99996.53;5057353;28;45298;-73
2022/11/15 08:45:02;;;;;;;;;7.67;6.00;;;;;12.62;69.45;100026.13;5054004;28;45077;-72
2022/11/15 08:47:27;;;;;;;;;5.00;5.00;;;;;12.65;69.92;100025.22;5055316;28;45961;-71
2022/11/15 08:49:53;;;;;;;;;6.67;3.67;;;;;12.60;69.62;100005.56;5045562;28;45281;-72
2022/11/15 08:52:18;;;;;;;;;11.33;7.00;;;;;12.60;69.73;99998.41;5032733;28;48525;-72
2022/11/15 08:54:44;;;;;;;;;6.33;6.00;;;;;12.67;69.33;100002.00;5037403;28;45417;-71
2022/11/15 08:57:09;;;;;;;;;5.00;4.00;;;;;12.64;69.42;99978.78;5041881;28;45557;-68
2022/11/15 08:59:35;;;;;;;;;3.00;3.00;;;;;12.80;69.08;99987.81;5016265;28;45434;-69
2022/11/15 09:02:01;;;;;;;;;5.00;3.33;;;;;12.72;69.63;99963.66;5044427;28;46749;-66
2022/11/15 09:04:27;;;;;;;;;8.00;6.33;;;;;12.89;70.06;99982.47;5036745;28;45890;-69
2022/11/15 09:06:52;;;;;;;;;4.33;4.33;;;;;12.91;69.07;99980.69;5042641;28;46194;-67
2022/11/15 09:09:17;;;;;;;;;2.33;2.33;;;;;12.88;69.29;99961.91;5031094;28;45459;-67
2022/11/15 09:11:43;;;;;;;;;4.67;4.00;;;;;12.95;68.54;99973.59;5007317;28;46611;-68
2022/11/15 09:14:11;;;;;;;;;5.33;4.00;;;;;12.64;68.94;99911.78;5039970;28;45461;-67
2022/11/15 09:16:36;;;;;;;;;6.00;6.00;;;;;12.91;68.52;99955.69;5019460;28;45458;-68
2022/11/15 09:19:02;;;;;;;;;7.00;7.00;;;;;13.12;69.21;99972.75;5053056;27;45494;-68
2022/11/15 09:21:29;;;;;;;;;6.00;5.00;;;;;13.18;68.29;99975.44;5022818;28;47187;-68
2022/11/15 09:23:54;;;;;;;;;5.67;5.67;;;;;13.17;68.49;99971.88;5020150;28;45391;-67
2022/11/15 09:26:20;;;;;;;;;7.00;5.67;;;;;13.13;67.91;99948.59;5034645;28;45483;-68
2022/11/15 09:28:45;;;;;;;;;4.67;3.00;;;;;13.23;68.05;99960.25;5038103;28;45695;-68
2022/11/15 09:31:11;;;;;;;;;5.00;3.67;;;;;13.11;67.75;99938.78;5051126;28;46377;-67
2022/11/15 09:33:37;;;;;;;;;5.67;4.00;;;;;13.27;68.19;99962.94;5058510;28;45637;-68
2022/11/15 09:36:06;;;;;;;;;2.67;2.33;;;;;13.31;66.90;99960.28;5036207;28;45537;-67
2022/11/15 09:38:32;;;;;;;;;4.67;3.67;;;;;13.33;66.85;99962.13;5041433;28;45525;-68
2022/11/15 09:41:13;;;;;;;;;6.00;4.33;;;;;13.37;67.30;99969.28;5043166;28;45294;-67
2022/11/15 09:43:50;;;;;;;;;3.00;3.00;;;;;13.39;67.31;99967.47;5032859;28;45485;-68
2022/11/15 09:46:26;;;;;;;;;3.00;3.00;;;;;13.43;66.73;99969.28;5035616;28;45349;-67
2022/11/15 09:48:54;;;;;;;;;3.33;3.33;;;;;13.43;67.08;99963.03;5041628;28;45480;-68
2022/11/15 09:51:49;;;;;;;;;3.00;3.00;;;;;13.44;66.49;99967.50;5044103;28;45924;-67
2022/11/15 09:54:15;;;;;;;;;6.00;5.67;;;;;13.47;67.66;99964.81;5028920;28;46392;-67
2022/11/15 09:56:44;;;;;;;;;8.33;4.33;;;;;13.48;67.88;99965.72;5035719;28;45589;-68
2022/11/15 09:59:38;;;;;;;;;6.00;6.00;;;;;13.53;68.25;99966.59;5040436;28;45516;-68
2022/11/15 10:02:34;;;;;;;;;7.67;5.00;;;;;13.55;68.15;99965.72;5029524;28;46503;-68
2022/11/15 10:05:01;;;;;;;;;2.00;2.00;;;;;13.58;68.21;99955.00;5033574;28;45490;-69
2022/11/15 10:07:30;;;;;;;;;8.00;4.00;;;;;13.47;67.97;99935.31;5040102;28;45464;-70
2022/11/15 10:10:32;;;;;;;;;4.00;4.00;;;;;13.43;68.78;99917.44;5048264;28;45283;-70
2022/11/15 10:12:58;;;;;;;;;7.00;4.33;;;;;13.51;69.00;99925.47;5038006;28;46797;-68
2022/11/15 10:15:25;;;;;;;;;7.33;5.00;;;;;13.58;68.56;99922.81;5036632;28;45379;-69
2022/11/15 10:18:18;;;;;;;;;7.00;5.33;;;;;13.63;68.68;99926.38;5051807;28;45393;-69
2022/11/15 10:20:55;;;;;;;;;4.33;4.33;;;;;13.50;69.53;99897.75;5036859;28;44840;-69
2022/11/15 10:23:22;;;;;;;;;7.33;5.00;;;;;13.63;69.03;99906.69;5039666;28;45577;-67
2022/11/15 10:25:53;;;;;;;;;3.33;3.00;;;;;13.68;68.94;99902.22;5030533;28;45531;-70
2022/11/15 10:28:27;;;;;;;;;14.00;12.50;;;;;13.70;69.51;99887.00;5063949;28;45462;-69
2022/11/15 10:30:55;;;;;;;;;10.00;8.33;;;;;13.63;70.21;99867.31;5039579;28;45423;-70
2022/11/15 10:33:28;;;;;;;;;6.33;4.00;;;;;13.69;69.48;99884.31;5033061;28;47221;-69
2022/11/15 10:36:09;;;;;;;;;7.67;5.67;;;;;13.68;69.68;99888.81;5030853;28;45455;-69
2022/11/15 10:38:52;;;;;;;;;4.67;4.67;;;;;13.72;69.76;99882.53;5044924;28;45315;-68
2022/11/15 10:41:39;;;;;;;;;5.00;5.00;;;;;13.77;70.71;99879.84;5039902;28;45384;-68
2022/11/15 10:44:21;;;;;;;;;6.00;5.00;;;;;13.74;70.55;99878.06;5045839;28;46092;-68
2022/11/15 10:47:27;;;;;;;;;9.33;6.67;;;;;13.77;70.49;99867.31;5019709;28;45714;-69
2022/11/15 10:50:14;;;;;;;;;7.33;5.00;;;;;13.45;70.15;99811.88;5034132;28;45337;-71
2022/11/15 10:52:46;;;;;;;;;6.33;4.67;;;;;13.77;70.31;99864.63;5029084;28;45495;-70
2022/11/15 10:55:11;;;;;;;;;7.00;6.00;;;;;13.77;70.80;99855.69;5020966;28;48453;-70
2022/11/15 10:57:38;;;;;;;;;5.00;5.00;;;;;13.73;71.36;99844.06;5053163;28;45484;-70
2022/11/15 11:00:25;;;;;;;;;7.00;6.00;;;;;13.74;71.46;99844.94;5037782;28;45485;-70
2022/11/15 11:03:00;;;;;;;;;6.67;6.67;;;;;13.60;71.57;99828.88;5018631;28;45355;-69
2022/11/15 11:05:27;;;;;;;;;8.00;4.00;;;;;13.69;71.42;99825.28;5053055;28;46351;-69
2022/11/15 11:08:24;;;;;;;;;4.67;3.00;;;;;13.68;71.70;99823.47;5037020;28;45550;-70
2022/11/15 11:10:57;;;;;;;;;4.00;4.00;;;;;13.56;71.94;99810.97;5020054;28;45614;-69
2022/11/15 11:13:26;;;;;;;;;12.33;11.00;;;;;13.66;71.90;99812.75;5046456;28;45366;-70
2022/11/15 11:16:04;;;;;;;;;9.33;6.00;;;;;13.73;71.95;99816.31;5045339;28;46458;-69
2022/11/15 11:18:53;;;;;;;;;8.00;5.00;;;;;13.73;71.37;99822.59;5041746;28;45332;-70
2022/11/15 11:21:26;;;;;;;;;8.67;5.67;;;;;13.70;71.54;99806.47;5028690;28;45438;-71
2022/11/15 11:23:58;;;;;;;;;8.00;6.00;;;;;13.56;72.07;99790.41;5041985;28;45309;-70
2022/11/15 11:26:40;;;;;;;;;9.00;9.00;;;;;13.55;73.14;99785.91;5056465;28;45283;-70
2022/11/15 11:29:21;;;;;;;;;22.25;20.00;;;;;13.71;72.76;99799.31;5044902;28;44930;-70
2022/11/15 11:32:08;;;;;;;;;10.00;7.50;;;;;13.72;72.42;99802.00;5048464;28;45575;-70
2022/11/15 11:34:53;;;;;;;;;7.33;7.00;;;;;13.64;72.95;99791.28;5038186;28;45589;-69
2022/11/15 11:37:52;;;;;;;;;11.00;8.67;;;;;13.69;73.04;99801.09;5049056;28;46433;-69
2022/11/15 11:40:36;;;;;;;;;5.67;5.33;;;;;13.68;72.92;99781.44;5005561;28;45642;-70
2022/11/15 11:43:11;;;;;;;;;9.33;7.33;;;;;13.64;73.78;99788.59;5025122;28;45403;-70
2022/11/15 11:45:50;;;;;;;;;11.67;11.67;;;;;13.62;73.46;99789.50;5025450;28;45502;-71
2022/11/15 11:48:44;;;;;;;;;44.75;35.25;;;;;13.58;73.76;99772.50;5046711;28;45491;-68